Zeus — V2OR — position and weather

sailwx.info

Track history (hours):
 
Tides and Currents Weather Stations Pressure Air Temp Water Temp Dewpoint Dewpoint Depression Visibility Wind Speed Wind Dir Waves Ship Positions

Zeus

Last reported at 2017-May-26 17:45 UTC. Time now 2017-May-26 22:50 UTC.
Position N 36°55' E 001°45'.

Length 89 m; draft 4.8 m.

Type: Ship. MMSI: 304011025.

Date/timePositionNaut miles runAvg speedWind from/ knotsBaromVisibWave heightAir tempDewpointWater temp
2017-May-26 17:45N 36°55' E 001°45'2 9.7
2017-May-26 17:30N 36°56' E 001°48'510.1
2017-May-26 17:00N 36°56' E 001°54'510.3
2017-May-26 16:30N 36°57' E 002°01'610.5
2017-May-26 15:55N 36°58' E 002°08'410.5
2017-May-26 15:30N 36°58' E 002°14'510.5
2017-May-26 15:00N 36°59' E 002°20'1010.4
2017-May-26 14:00N 37°01' E 002°33'510.3
2017-May-26 13:30N 37°01' E 002°40'3110.0
2017-May-26 10:23N 37°06' E 003°18'4 9.8
2017-May-26 09:58N 37°06' E 003°23'5 9.7
2017-May-26 09:30N 37°07' E 003°29'206 9.8
2017-May-25 12:26N 37°32' E 007°46'4 9.6
2017-May-25 11:59N 37°32' E 007°51'8 9.8
2017-May-25 11:08N 37°33' E 008°02'1 9.9
2017-May-25 11:00N 37°33' E 008°03'26 9.6
2017-May-25 08:20N 37°37' E 008°35'4 9.6
2017-May-25 07:53N 37°37' E 008°41'4 9.6
2017-May-25 07:30N 37°38' E 008°45'5 9.6
2017-May-25 07:00N 37°38' E 008°51'5 9.8
2017-May-25 06:30N 37°39' E 008°58'7 9.8
2017-May-25 05:47N 37°39' E 009°06'6 9.6
2017-May-25 05:09N 37°39' E 009°14'2 9.4
2017-May-25 04:59N 37°39' E 009°16'5 9.4
2017-May-25 04:29N 37°39' E 009°22'11 9.2
2017-May-25 03:19N 37°39' E 009°36'4 9.0
2017-May-25 02:51N 37°39' E 009°41'5 9.3
2017-May-25 02:18N 37°39' E 009°47'5 9.5
2017-May-25 01:48N 37°39' E 009°53'4 9.7
2017-May-25 01:25N 37°39' E 009°58'186 9.7
2017-May-24 06:10N 36°53' E 013°45'2 9.4
2017-May-24 06:00N 36°53' E 013°47'6 9.3
2017-May-24 05:24N 36°51' E 013°53'4 9.3
2017-May-24 05:00N 36°50' E 013°58'5 9.3
2017-May-24 04:30N 36°49' E 014°04'5 9.2
2017-May-24 04:00N 36°48' E 014°09'5 9.0
2017-May-24 03:30N 36°47' E 014°15'5 9.0
2017-May-24 03:00N 36°45' E 014°20'5 9.4
2017-May-24 02:30N 36°44' E 014°26'5 9.9
2017-May-24 02:00N 36°43' E 014°32'510.3
2017-May-24 01:30N 36°41' E 014°38'510.0
2017-May-24 01:00N 36°40' E 014°44'5 9.9
2017-May-24 00:30N 36°39' E 014°50'5 9.9
2017-May-24 00:00N 36°38' E 014°56'5 9.8
2017-May-23 23:30N 36°36' E 015°02'5 9.9
2017-May-23 22:58N 36°35' E 015°08'510.0
2017-May-23 22:30N 36°35' E 015°14'  
Track history (hours):
 
Tides and Currents Weather Stations Pressure Air Temp Water Temp Dewpoint Dewpoint Depression Visibility Wind Speed Wind Dir Waves Ship Positions

Zeus

Last reported at 2017-May-26 17:45 UTC. Time now 2017-May-26 22:50 UTC.
Position N 36°55' E 001°45'.

Length 89 m; draft 4.8 m.

Type: Ship. MMSI: 304011025.

Date/timePositionNaut miles runAvg speedWind from/ knotsBaromVisibWave heightAir tempDewpointWater temp
2017-May-26 17:45N 36°55' E 001°45'2 9.7
2017-May-26 17:30N 36°56' E 001°48'510.1
2017-May-26 17:00N 36°56' E 001°54'510.3
2017-May-26 16:30N 36°57' E 002°01'610.5
2017-May-26 15:55N 36°58' E 002°08'410.5
2017-May-26 15:30N 36°58' E 002°14'510.5
2017-May-26 15:00N 36°59' E 002°20'1010.4
2017-May-26 14:00N 37°01' E 002°33'510.3
2017-May-26 13:30N 37°01' E 002°40'3110.0
2017-May-26 10:23N 37°06' E 003°18'4 9.8
2017-May-26 09:58N 37°06' E 003°23'5 9.7
2017-May-26 09:30N 37°07' E 003°29'206 9.8
2017-May-25 12:26N 37°32' E 007°46'4 9.6
2017-May-25 11:59N 37°32' E 007°51'8 9.8
2017-May-25 11:08N 37°33' E 008°02'1 9.9
2017-May-25 11:00N 37°33' E 008°03'26 9.6
2017-May-25 08:20N 37°37' E 008°35'4 9.6
2017-May-25 07:53N 37°37' E 008°41'4 9.6
2017-May-25 07:30N 37°38' E 008°45'5 9.6
2017-May-25 07:00N 37°38' E 008°51'5 9.8
2017-May-25 06:30N 37°39' E 008°58'7 9.8
2017-May-25 05:47N 37°39' E 009°06'6 9.6
2017-May-25 05:09N 37°39' E 009°14'2 9.4
2017-May-25 04:59N 37°39' E 009°16'5 9.4
2017-May-25 04:29N 37°39' E 009°22'11 9.2
2017-May-25 03:19N 37°39' E 009°36'4 9.0
2017-May-25 02:51N 37°39' E 009°41'5 9.3
2017-May-25 02:18N 37°39' E 009°47'5 9.5
2017-May-25 01:48N 37°39' E 009°53'4 9.7
2017-May-25 01:25N 37°39' E 009°58'186 9.7
2017-May-24 06:10N 36°53' E 013°45'2 9.4
2017-May-24 06:00N 36°53' E 013°47'6 9.3
2017-May-24 05:24N 36°51' E 013°53'4 9.3
2017-May-24 05:00N 36°50' E 013°58'5 9.3
2017-May-24 04:30N 36°49' E 014°04'5 9.2
2017-May-24 04:00N 36°48' E 014°09'5 9.0
2017-May-24 03:30N 36°47' E 014°15'5 9.0
2017-May-24 03:00N 36°45' E 014°20'5 9.4
2017-May-24 02:30N 36°44' E 014°26'5 9.9
2017-May-24 02:00N 36°43' E 014°32'510.3
2017-May-24 01:30N 36°41' E 014°38'510.0
2017-May-24 01:00N 36°40' E 014°44'5 9.9
2017-May-24 00:30N 36°39' E 014°50'5 9.9
2017-May-24 00:00N 36°38' E 014°56'5 9.8
2017-May-23 23:30N 36°36' E 015°02'5 9.9
2017-May-23 22:58N 36°35' E 015°08'510.0
2017-May-23 22:30N 36°35' E 015°14'  

Dump ship's entire track history